ENST/SSJ METAR and TAF weather

Enter ICAO airport designator
Station Type Date Time Source
ENST METAR 2020/09/18 17:20 UTC NOAA

ENST 181720Z 23013KT 9999 VCSH FEW016 SCT025 BKN030 11/09 Q1018 RMK WIND 300FT 25017KT


Station Type Date Time Source
ENST Decoded METAR 2020/09/18 17:20 UTC NOAA

Sandnessjoen / Stokka, Norway (ENST) 65-58N 012-28E 17M
Sep 18, 2020 - 01:20 PM EDT / 2020.09.18 1720 UTC
Wind: from the SW (230 degrees) at 15 MPH (13 KT):0
Visibility: greater than 7 mile(s):0
Sky conditions: mostly cloudy
Weather: showers in the vicinity
Temperature: 51 F (11 C)
Dew Point: 48 F (9 C)
Relative Humidity: 87%
Pressure (altimeter): 30.06 in. Hg (1018 hPa)
ob: ENST 181720Z 23013KT 9999 VCSH FEW016 SCT025 BKN030 11/09 Q1018 RMK WIND 300FT 25017KT
cycle: 17

Station Type Date Time Source
ENST TAF UTC NOAA

Error!

Example: see airport list